createdAt,value
2017-12-13T00:00:20.657Z,999.81
2017-12-13T00:01:30.737Z,999.78
2017-12-13T00:02:40.285Z,999.73
2017-12-13T00:03:50.367Z,999.76
2017-12-13T00:05:00.152Z,999.8
2017-12-13T00:06:09.983Z,999.83
2017-12-13T00:07:19.533Z,999.84
2017-12-13T00:08:29.642Z,999.85
2017-12-13T00:09:39.697Z,999.86
2017-12-13T00:10:49.480Z,999.88
2017-12-13T00:11:59.310Z,999.88
2017-12-13T00:13:09.373Z,999.81
2017-12-13T00:14:19.492Z,999.78
2017-12-13T00:15:29.285Z,999.84
2017-12-13T00:16:39.995Z,999.79
2017-12-13T00:17:50.059Z,999.8
2017-12-13T00:19:00.121Z,999.77
2017-12-13T00:20:09.921Z,999.73
2017-12-13T00:21:20.469Z,999.8
2017-12-13T00:22:30.547Z,999.79
2017-12-13T00:23:40.612Z,999.81
2017-12-13T00:24:50.694Z,999.81
2017-12-13T00:26:00.509Z,999.79
2017-12-13T00:27:10.564Z,999.77
2017-12-13T00:28:20.641Z,999.78
2017-12-13T00:29:30.452Z,999.76
2017-12-13T00:30:40.515Z,999.73
2017-12-13T00:31:52.155Z,999.73
2017-12-13T00:33:01.716Z,999.73
2017-12-13T00:34:11.812Z,999.73
2017-12-13T00:35:21.610Z,999.79
2017-12-13T00:36:31.646Z,999.73
2017-12-13T00:37:41.757Z,999.75
2017-12-13T00:38:51.833Z,999.77
2017-12-13T00:40:01.636Z,999.78
2017-12-13T00:41:11.721Z,999.75
2017-12-13T00:42:21.796Z,999.8
2017-12-13T00:43:31.528Z,999.8
2017-12-13T00:44:41.600Z,999.79
2017-12-13T00:45:51.659Z,999.81
2017-12-13T00:47:01.444Z,999.83
2017-12-13T00:48:11.390Z,999.84
2017-12-13T00:49:21.252Z,999.91
2017-12-13T00:50:31.152Z,999.93
2017-12-13T00:51:41.139Z,999.95
2017-12-13T00:52:50.936Z,999.96
2017-12-13T00:54:01.009Z,999.97
2017-12-13T00:55:10.796Z,999.9
2017-12-13T00:56:20.838Z,999.86
2017-12-13T00:57:30.883Z,999.89
2017-12-13T00:58:40.935Z,999.88
2017-12-13T00:59:50.723Z,999.88
2017-12-13T01:01:00.749Z,999.94
2017-12-13T01:02:12.886Z,999.94
2017-12-13T01:03:22.938Z,999.94
2017-12-13T01:04:32.464Z,999.89
2017-12-13T01:05:42.520Z,999.89
2017-12-13T01:06:52.570Z,999.92
2017-12-13T01:08:02.628Z,999.91
2017-12-13T01:09:12.416Z,999.88
2017-12-13T01:10:22.482Z,999.86
2017-12-13T01:11:32.546Z,999.87
2017-12-13T01:12:42.382Z,999.92
2017-12-13T01:13:52.185Z,999.92
2017-12-13T01:15:02.335Z,999.94
2017-12-13T01:16:12.400Z,999.97
2017-12-13T01:17:21.948Z,999.97
2017-12-13T01:18:32.155Z,1000.03
2017-12-13T01:19:42.751Z,1000
2017-12-13T01:20:52.539Z,1000.04
2017-12-13T01:22:02.427Z,1000.04
2017-12-13T01:23:12.497Z,1000.03
2017-12-13T01:24:22.281Z,1000.06
2017-12-13T01:25:32.333Z,1000.04
2017-12-13T01:26:42.398Z,1000.05
2017-12-13T01:27:52.438Z,1000.03
2017-12-13T01:29:02.228Z,1000
2017-12-13T01:30:12.278Z,1000
2017-12-13T01:31:22.079Z,1000.04
2017-12-13T01:32:31.861Z,1000.03
2017-12-13T01:33:41.662Z,999.99
2017-12-13T01:34:51.453Z,1000.07
2017-12-13T01:36:01.501Z,1000.02
2017-12-13T01:37:11.610Z,999.99
2017-12-13T01:38:21.661Z,1000
2017-12-13T01:39:31.723Z,999.97
2017-12-13T01:40:41.771Z,999.93
2017-12-13T01:41:51.614Z,999.91
2017-12-13T01:43:01.722Z,999.89
2017-12-13T01:44:11.508Z,999.86
2017-12-13T01:45:21.304Z,999.89
2017-12-13T01:46:30.562Z,999.87
2017-12-13T01:47:40.142Z,999.83
2017-12-13T01:48:50.194Z,999.81
2017-12-13T01:49:59.708Z,999.85
2017-12-13T01:51:08.971Z,999.83
2017-12-13T01:52:19.033Z,999.88
2017-12-13T01:53:28.557Z,999.91
2017-12-13T01:54:39.056Z,999.92
2017-12-13T01:55:49.117Z,999.93
2017-12-13T01:57:01.535Z,999.98
2017-12-13T01:58:11.075Z,999.97
2017-12-13T01:59:21.691Z,1000.01
2017-12-13T02:00:31.745Z,1000.01
2017-12-13T02:01:41.811Z,1000.02
2017-12-13T02:02:51.872Z,1000.09
2017-12-13T02:04:01.999Z,1000.06
2017-12-13T02:05:12.110Z,1000.06
2017-12-13T02:06:22.167Z,1000.03
2017-12-13T02:07:32.220Z,1000.05
2017-12-13T02:08:41.745Z,1000.01
2017-12-13T02:09:51.804Z,1000
2017-12-13T02:11:01.849Z,1000
2017-12-13T02:12:11.633Z,999.99
2017-12-13T02:13:21.163Z,999.97
2017-12-13T02:14:30.960Z,999.94
2017-12-13T02:15:40.752Z,999.88
2017-12-13T02:16:50.524Z,999.9
2017-12-13T02:18:00.320Z,999.85
2017-12-13T02:19:10.105Z,999.8
2017-12-13T02:20:19.973Z,999.83
2017-12-13T02:21:29.768Z,999.78
2017-12-13T02:22:39.831Z,999.73
2017-12-13T02:23:49.629Z,999.74
2017-12-13T02:24:59.420Z,999.73
2017-12-13T02:26:09.213Z,999.7
2017-12-13T02:27:18.759Z,999.78
2017-12-13T02:28:28.817Z,999.85
2017-12-13T02:29:38.861Z,999.9
2017-12-13T02:30:48.970Z,999.95
2017-12-13T02:31:58.778Z,1000.01
2017-12-13T02:33:08.304Z,1000.01
2017-12-13T02:34:18.155Z,1000.02
2017-12-13T02:35:27.962Z,1000.01
2017-12-13T02:36:37.753Z,1000.01
2017-12-13T02:37:47.550Z,999.96
2017-12-13T02:38:57.619Z,999.95
2017-12-13T02:40:07.415Z,999.97
2017-12-13T02:41:17.466Z,1000.04
2017-12-13T02:42:27.540Z,999.99
2017-12-13T02:43:37.325Z,1000.08
2017-12-13T02:44:47.114Z,1000.1
2017-12-13T02:45:56.942Z,1000.13
2017-12-13T02:47:06.734Z,1000.13
2017-12-13T02:48:16.788Z,1000.13
2017-12-13T02:49:26.607Z,1000.15
2017-12-13T02:50:36.421Z,1000.14
2017-12-13T02:51:46.518Z,1000.12
2017-12-13T02:52:57.332Z,1000.13
2017-12-13T02:54:06.874Z,1000.13
2017-12-13T02:55:16.392Z,1000.09
2017-12-13T02:56:26.442Z,1000.04
2017-12-13T02:57:36.299Z,999.98
2017-12-13T02:58:46.336Z,1000.01
2017-12-13T02:59:56.123Z,1000.04
2017-12-13T03:01:05.916Z,1000.02
2017-12-13T03:02:15.454Z,1000.01
2017-12-13T03:34:14.022Z,1000.24
2017-12-13T03:35:24.077Z,1000.27
2017-12-13T03:36:34.109Z,1000.28
2017-12-13T03:37:43.886Z,1000.33
2017-12-13T03:38:53.668Z,1000.29
2017-12-13T03:40:03.453Z,1000.26
2017-12-13T03:41:13.505Z,1000.24
2017-12-13T03:42:23.545Z,1000.2
2017-12-13T03:43:33.600Z,1000.28
2017-12-13T03:44:43.125Z,1000.22
2017-12-13T03:45:52.651Z,1000.27
2017-12-13T03:47:02.433Z,1000.28
2017-12-13T03:48:12.476Z,1000.28
2017-12-13T03:49:22.004Z,1000.25
2017-12-13T03:50:31.791Z,1000.26
2017-12-13T03:51:41.843Z,1000.27
2017-12-13T03:52:51.902Z,1000.29
2017-12-13T03:54:01.955Z,1000.32
2017-12-13T03:55:11.209Z,1000.27
2017-12-13T03:56:20.749Z,1000.31
2017-12-13T03:57:30.544Z,1000.23
2017-12-13T03:58:40.333Z,1000.18
2017-12-13T03:59:50.487Z,1000.19
2017-12-13T04:01:00.542Z,1000.16
2017-12-13T04:02:10.327Z,1000.22
2017-12-13T04:03:20.379Z,1000.22
2017-12-13T04:04:30.435Z,1000.23
2017-12-13T04:05:40.490Z,1000.2
2017-12-13T04:06:50.535Z,1000.16
2017-12-13T04:08:00.571Z,1000.08
2017-12-13T04:09:10.112Z,1000.07
2017-12-13T04:10:20.169Z,1000.07
2017-12-13T04:11:29.959Z,1000.07
2017-12-13T04:12:40.009Z,1000.07
2017-12-13T04:13:49.790Z,1000.12
2017-12-13T04:14:59.624Z,1000.11
2017-12-13T04:16:09.449Z,1000.17
2017-12-13T04:17:19.538Z,1000.19
2017-12-13T04:18:29.590Z,1000.23
2017-12-13T04:19:39.637Z,1000.21
2017-12-13T04:20:49.430Z,1000.28
2017-12-13T04:21:59.230Z,1000.25
2017-12-13T04:23:09.013Z,1000.26
2017-12-13T04:24:18.795Z,1000.24
2017-12-13T04:25:29.981Z,1000.24
2017-12-13T04:26:40.074Z,1000.31
2017-12-13T04:27:50.106Z,1000.37
2017-12-13T04:29:00.199Z,1000.39
2017-12-13T04:30:09.994Z,1000.43
2017-12-13T04:31:19.792Z,1000.46
2017-12-13T04:32:29.862Z,1000.48
2017-12-13T04:33:39.913Z,1000.5
2017-12-13T04:34:49.988Z,1000.52
2017-12-13T04:36:00.039Z,1000.52
2017-12-13T04:37:10.094Z,1000.53
2017-12-13T04:38:20.214Z,1000.54
2017-12-13T04:39:30.263Z,1000.58
2017-12-13T04:40:40.049Z,1000.56
2017-12-13T04:41:50.091Z,1000.55
2017-12-13T04:43:00.138Z,1000.58
2017-12-13T04:44:09.984Z,1000.54
2017-12-13T04:45:20.047Z,1000.58
2017-12-13T04:46:30.095Z,1000.55
2017-12-13T04:47:40.127Z,1000.57
2017-12-13T04:48:49.926Z,1000.56
2017-12-13T04:49:59.990Z,1000.56
2017-12-13T04:51:10.049Z,1000.51
2017-12-13T04:52:19.847Z,1000.52
2017-12-13T04:53:29.641Z,1000.51
2017-12-13T04:54:39.431Z,1000.53
2017-12-13T04:55:49.216Z,1000.54
2017-12-13T04:56:59.251Z,1000.58
2017-12-13T04:58:08.525Z,1000.66
2017-12-13T04:59:18.329Z,1000.68
2017-12-13T05:00:28.396Z,1000.64
2017-12-13T05:01:38.451Z,1000.69
2017-12-13T05:02:48.304Z,1000.69
2017-12-13T05:03:57.816Z,1000.72
2017-12-13T05:05:07.660Z,1000.7
2017-12-13T05:06:17.449Z,1000.7
2017-12-13T05:07:27.502Z,1000.68
2017-12-13T05:08:37.549Z,1000.69
2017-12-13T05:09:47.634Z,1000.73
2017-12-13T05:10:57.689Z,1000.68
2017-12-13T05:12:07.476Z,1000.69
2017-12-13T05:13:17.574Z,1000.71
2017-12-13T05:14:27.619Z,1000.78
2017-12-13T05:15:37.683Z,1000.79
2017-12-13T05:16:47.518Z,1000.79
2017-12-13T05:17:57.315Z,1000.83
2017-12-13T05:19:07.373Z,1000.82
2017-12-13T05:20:17.416Z,1000.83
2017-12-13T05:21:27.214Z,1000.8
2017-12-13T05:22:36.986Z,1000.85
2017-12-13T05:23:47.054Z,1000.88
2017-12-13T05:24:57.113Z,1000.91
2017-12-13T05:26:07.181Z,1000.89
2017-12-13T05:27:16.987Z,1000.92
2017-12-13T05:28:26.780Z,1000.96
2017-12-13T05:29:36.829Z,1000.98
2017-12-13T05:30:46.884Z,1001
2017-12-13T05:31:56.956Z,1000.94
2017-12-13T05:33:07.010Z,1000.98
2017-12-13T05:34:17.053Z,1000.96
2017-12-13T05:35:27.082Z,1000.92
2017-12-13T05:36:37.133Z,1000.9
2017-12-13T05:37:47.188Z,1000.94
2017-12-13T05:38:57.248Z,1000.99
2017-12-13T05:40:07.047Z,1000.96
2017-12-13T05:41:17.086Z,1000.97
2017-12-13T05:42:26.933Z,1000.98
2017-12-13T05:43:36.975Z,1001.03
2017-12-13T05:44:47.022Z,1000.99
2017-12-13T05:45:56.806Z,1001
2017-12-13T05:47:06.867Z,1000.97
2017-12-13T05:48:16.913Z,1000.97
2017-12-13T05:49:26.968Z,1000.97
2017-12-13T05:50:36.816Z,1000.97
2017-12-13T05:51:46.878Z,1001.03
2017-12-13T05:52:56.659Z,1001.08
2017-12-13T05:54:06.471Z,1001.06
2017-12-13T05:55:16.515Z,1001.05
2017-12-13T05:56:26.612Z,1001.08
2017-12-13T05:57:36.401Z,1001.03
2017-12-13T05:58:46.448Z,1001.04
2017-12-13T05:59:55.975Z,1001.07
2017-12-13T06:01:06.061Z,1001.06
2017-12-13T06:02:16.132Z,1001.15
2017-12-13T06:03:25.935Z,1001.13
2017-12-13T06:04:36.000Z,1001.13
2017-12-13T06:05:46.055Z,1001.13
2017-12-13T06:06:55.872Z,1001.17
2017-12-13T06:08:05.391Z,1001.21
2017-12-13T06:09:14.928Z,1001.18
2017-12-13T06:10:24.714Z,1001.2
2017-12-13T06:11:34.511Z,1001.21
2017-12-13T06:12:44.058Z,1001.2
2017-12-13T06:13:53.855Z,1001.24
2017-12-13T06:15:03.904Z,1001.26
2017-12-13T06:16:13.951Z,1001.3
2017-12-13T06:17:23.996Z,1001.26
2017-12-13T06:18:33.521Z,1001.31
2017-12-13T06:19:43.577Z,1001.34
2017-12-13T06:20:53.389Z,1001.33
2017-12-13T06:22:03.498Z,1001.4
2017-12-13T06:23:13.014Z,1001.41
2017-12-13T06:24:22.868Z,1001.39
2017-12-13T06:25:32.652Z,1001.39
2017-12-13T06:26:42.702Z,1001.44
2017-12-13T06:27:52.485Z,1001.44
2017-12-13T06:29:02.274Z,1001.39
2017-12-13T06:30:12.079Z,1001.45
2017-12-13T06:31:21.927Z,1001.42
2017-12-13T06:32:31.964Z,1001.45
2017-12-13T06:33:42.041Z,1001.48
2017-12-13T06:34:51.821Z,1001.51
2017-12-13T06:36:01.609Z,1001.54
2017-12-13T06:37:11.445Z,1001.55
2017-12-13T06:38:21.514Z,1001.57
2017-12-13T06:39:31.314Z,1001.54
2017-12-13T06:40:40.852Z,1001.48
2017-12-13T06:41:50.953Z,1001.52
2017-12-13T06:43:00.466Z,1001.49
2017-12-13T06:44:10.517Z,1001.55
2017-12-13T06:45:19.784Z,1001.54
2017-12-13T06:46:29.828Z,1001.52
2017-12-13T06:47:39.682Z,1001.6
2017-12-13T06:48:49.210Z,1001.55
2017-12-13T06:49:59.314Z,1001.58
2017-12-13T06:51:09.393Z,1001.53
2017-12-13T06:52:19.449Z,1001.54
2017-12-13T06:53:29.500Z,1001.54
2017-12-13T06:54:39.546Z,1001.56
2017-12-13T06:55:49.334Z,1001.52
2017-12-13T06:56:58.930Z,1001.51
2017-12-13T06:58:08.981Z,1001.52
2017-12-13T06:59:18.837Z,1001.56
2017-12-13T07:00:28.630Z,1001.5
2017-12-13T07:01:38.411Z,1001.54
2017-12-13T07:02:47.964Z,1001.51
2017-12-13T07:03:58.004Z,1001.54
2017-12-13T07:05:07.807Z,1001.57
2017-12-13T07:06:17.864Z,1001.59
2017-12-13T07:07:27.647Z,1001.6
2017-12-13T07:08:37.705Z,1001.63
2017-12-13T07:09:47.229Z,1001.62
2017-12-13T07:10:57.327Z,1001.67
2017-12-13T07:12:06.857Z,1001.66
2017-12-13T07:13:16.387Z,1001.61
2017-12-13T07:14:25.926Z,1001.67
2017-12-13T07:15:35.718Z,1001.66
2017-12-13T07:16:45.523Z,1001.65
2017-12-13T07:17:55.302Z,1001.72
2017-12-13T07:19:05.091Z,1001.67
2017-12-13T07:20:14.869Z,1001.69
2017-12-13T07:21:24.396Z,1001.68
2017-12-13T07:22:34.447Z,1001.69
2017-12-13T07:23:43.714Z,1001.7
2017-12-13T07:24:53.257Z,1001.72
2017-12-13T07:26:03.320Z,1001.74
2017-12-13T07:27:13.386Z,1001.71
2017-12-13T07:28:23.477Z,1001.74
2017-12-13T07:29:33.537Z,1001.73
2017-12-13T07:30:43.667Z,1001.76
2017-12-13T07:31:53.453Z,1001.82
2017-12-13T07:33:03.255Z,1001.87
2017-12-13T07:34:13.305Z,1001.87
2017-12-13T07:35:22.845Z,1001.87
2017-12-13T07:36:32.380Z,1001.82
2017-12-13T07:37:42.414Z,1001.85
2017-12-13T07:38:52.247Z,1001.82
2017-12-13T07:40:02.288Z,1001.88
2017-12-13T07:41:12.185Z,1001.89
2017-12-13T07:42:21.974Z,1001.93
2017-12-13T07:43:32.032Z,1001.89
2017-12-13T07:44:41.825Z,1001.89
2017-12-13T07:45:51.617Z,1001.89
2017-12-13T07:47:01.405Z,1001.84
2017-12-13T07:48:11.440Z,1001.83
2017-12-13T07:49:21.233Z,1001.83
2017-12-13T07:50:31.572Z,1001.82
2017-12-13T07:51:41.672Z,1001.82
2017-12-13T07:52:51.733Z,1001.78
2017-12-13T07:54:01.537Z,1001.76
2017-12-13T07:55:10.812Z,1001.77
2017-12-13T07:56:20.614Z,1001.78
2017-12-13T07:57:31.700Z,1001.82
2017-12-13T07:58:41.824Z,1001.8
2017-12-13T07:59:51.611Z,1001.82
2017-12-13T08:01:01.676Z,1001.78
2017-12-13T08:02:11.479Z,1001.75
2017-12-13T08:03:21.601Z,1001.78
2017-12-13T08:04:31.151Z,1001.77
2017-12-13T08:05:40.953Z,1001.84
2017-12-13T08:06:50.999Z,1001.83
2017-12-13T08:08:00.870Z,1001.78
2017-12-13T08:09:10.977Z,1001.74
2017-12-13T08:10:20.514Z,1001.73
2017-12-13T08:11:30.300Z,1001.66
2017-12-13T08:12:40.144Z,1001.68
2017-12-13T08:13:50.073Z,1001.7
2017-12-13T08:15:00.129Z,1001.74
2017-12-13T08:16:09.949Z,1001.7
2017-12-13T08:17:19.734Z,1001.7
2017-12-13T08:18:29.779Z,1001.66
2017-12-13T08:19:39.852Z,1001.66
2017-12-13T08:20:49.906Z,1001.62
2017-12-13T08:21:59.444Z,1001.65
2017-12-13T08:23:09.496Z,1001.7
2017-12-13T08:24:19.296Z,1001.69
2017-12-13T08:25:29.355Z,1001.66
2017-12-13T08:26:39.155Z,1001.65
2017-12-13T08:27:48.952Z,1001.64
2017-12-13T08:28:58.753Z,1001.66
2017-12-13T08:30:08.552Z,1001.6
2017-12-13T08:31:18.078Z,1001.62
2017-12-13T08:32:28.130Z,1001.54
2017-12-13T08:33:37.689Z,1001.54
2017-12-13T08:34:47.757Z,1001.51
2017-12-13T08:35:57.309Z,1001.52
2017-12-13T08:37:07.111Z,1001.52
2017-12-13T08:38:16.949Z,1001.51
2017-12-13T08:39:27.141Z,1001.53
2017-12-13T08:40:37.200Z,1001.57
2017-12-13T08:41:46.997Z,1001.59
2017-12-13T08:42:57.083Z,1001.61
2017-12-13T08:44:07.132Z,1001.67
2017-12-13T08:45:18.294Z,1001.68
2017-12-13T08:46:28.348Z,1001.7
2017-12-13T08:47:38.126Z,1001.69
2017-12-13T08:48:48.190Z,1001.71
2017-12-13T08:49:58.076Z,1001.76
2017-12-13T08:51:07.622Z,1001.74
2017-12-13T08:52:17.481Z,1001.73
2017-12-13T08:53:28.187Z,1001.72
2017-12-13T08:54:37.976Z,1001.74
2017-12-13T08:55:47.799Z,1001.69
2017-12-13T08:56:57.583Z,1001.69
2017-12-13T08:58:07.958Z,1001.72
2017-12-13T08:59:18.004Z,1001.72
2017-12-13T09:00:27.541Z,1001.76
2017-12-13T09:01:37.597Z,1001.74
2017-12-13T09:02:47.398Z,1001.72
2017-12-13T09:03:57.475Z,1001.71
2017-12-13T09:05:07.528Z,1001.7
2017-12-13T09:06:17.600Z,1001.76
2017-12-13T09:07:27.128Z,1001.75
2017-12-13T09:08:37.185Z,1001.73
2017-12-13T09:09:47.241Z,1001.73
2017-12-13T09:10:57.034Z,1001.72
2017-12-13T09:12:06.824Z,1001.72
2017-12-13T09:13:16.943Z,1001.7
2017-12-13T09:14:26.730Z,1001.64
2017-12-13T09:15:36.532Z,1001.7
2017-12-13T09:16:46.592Z,1001.71
2017-12-13T09:17:56.389Z,1001.7
2017-12-13T09:19:06.499Z,1001.73
2017-12-13T09:20:16.539Z,1001.74
2017-12-13T09:21:26.346Z,1001.7
2017-12-13T09:22:36.141Z,1001.71
2017-12-13T09:23:46.376Z,1001.7
2017-12-13T09:24:56.202Z,1001.59
2017-12-13T09:26:05.731Z,1001.67
2017-12-13T09:27:15.786Z,1001.57
2017-12-13T09:28:25.588Z,1001.55
2017-12-13T09:29:35.385Z,1001.5
2017-12-13T09:30:45.534Z,1001.48
2017-12-13T09:31:55.333Z,1001.44
2017-12-13T09:33:05.405Z,1001.44
2017-12-13T09:34:14.938Z,1001.43
2017-12-13T09:35:25.012Z,1001.45
2017-12-13T09:36:34.577Z,1001.46
2017-12-13T09:37:44.637Z,1001.39
2017-12-13T09:38:54.695Z,1001.39
2017-12-13T09:40:04.495Z,1001.4
2017-12-13T09:41:14.562Z,1001.28
2017-12-13T09:42:24.393Z,1001.32
2017-12-13T09:43:34.445Z,1001.33
2017-12-13T09:44:44.229Z,1001.28
2017-12-13T09:45:54.011Z,1001.26
2017-12-13T09:47:03.544Z,1001.21
2017-12-13T09:48:13.612Z,1001.23
2017-12-13T09:49:23.665Z,1001.23
2017-12-13T09:50:33.739Z,1001.21
2017-12-13T09:51:43.844Z,1001.21
2017-12-13T09:52:53.660Z,1001.17
2017-12-13T09:54:03.197Z,1001.16
2017-12-13T09:55:13.309Z,1001.18
2017-12-13T09:56:23.137Z,1001.15
2017-12-13T09:57:32.981Z,1001.11
2017-12-13T09:58:42.514Z,1001.15
2017-12-13T09:59:52.405Z,1001.09
2017-12-13T10:01:02.532Z,1001.13
2017-12-13T10:02:12.600Z,1001.1
2017-12-13T10:03:22.648Z,1001.09
2017-12-13T10:04:32.698Z,1001.05
2017-12-13T10:05:42.510Z,1001.07
2017-12-13T10:06:52.554Z,1001.1
2017-12-13T10:08:02.353Z,1001.09
2017-12-13T10:09:12.424Z,1001.06
2017-12-13T10:10:22.237Z,1001
2017-12-13T10:11:31.501Z,1000.98
2017-12-13T10:12:41.560Z,1000.93
2017-12-13T10:13:51.106Z,1000.92
2017-12-13T10:15:01.170Z,1000.88
2017-12-13T10:16:10.996Z,1000.93
2017-12-13T10:17:20.778Z,1000.87
2017-12-13T10:18:30.318Z,1000.85
2017-12-13T10:19:40.101Z,1000.85
2017-12-13T10:20:50.155Z,1000.8
2017-12-13T10:21:59.691Z,1000.82
2017-12-13T10:23:09.800Z,1000.83
2017-12-13T10:24:19.593Z,1000.79
2017-12-13T10:25:29.697Z,1000.76
2017-12-13T10:26:39.760Z,1000.77
2017-12-13T10:27:49.823Z,1000.72
2017-12-13T10:28:59.625Z,1000.76
2017-12-13T10:30:09.690Z,1000.7
2017-12-13T10:31:19.769Z,1000.7
2017-12-13T10:32:29.855Z,1000.6
2017-12-13T10:33:39.641Z,1000.64
2017-12-13T10:34:49.487Z,1000.64
2017-12-13T10:35:59.554Z,1000.63
2017-12-13T10:37:09.344Z,1000.56
2017-12-13T10:38:18.884Z,1000.57
2017-12-13T10:39:28.954Z,1000.51
2017-12-13T10:40:38.539Z,1000.46
2017-12-13T10:41:48.604Z,1000.47
2017-12-13T10:42:58.679Z,1000.49
2017-12-13T10:44:08.742Z,1000.46
2017-12-13T10:45:18.840Z,1000.45
2017-12-13T10:46:28.681Z,1000.45
2017-12-13T10:47:38.467Z,1000.47
2017-12-13T10:48:48.005Z,1000.44
2017-12-13T10:49:58.072Z,1000.46
2017-12-13T10:51:08.809Z,1000.34
2017-12-13T10:52:18.584Z,1000.34
2017-12-13T10:53:28.646Z,1000.35
2017-12-13T10:54:38.693Z,1000.36
2017-12-13T10:55:48.749Z,1000.32
2017-12-13T10:56:58.793Z,1000.31
2017-12-13T10:58:08.386Z,1000.28
2017-12-13T10:59:17.926Z,1000.29
2017-12-13T11:00:27.987Z,1000.25
2017-12-13T11:01:37.773Z,1000.24
2017-12-13T11:02:48.317Z,1000.24
2017-12-13T11:03:58.363Z,1000.14
2017-12-13T11:05:08.414Z,1000.16
2017-12-13T11:06:18.528Z,1000.14
2017-12-13T11:07:28.318Z,1000.14
2017-12-13T11:08:38.373Z,1000.12
2017-12-13T11:09:48.423Z,1000.09
2017-12-13T11:10:58.252Z,1000.05
2017-12-13T11:12:09.330Z,1000.05
2017-12-13T11:13:19.112Z,1000.05
2017-12-13T11:14:28.908Z,1000
2017-12-13T11:15:38.694Z,1000.04
2017-12-13T11:16:48.252Z,999.96
2017-12-13T11:17:58.058Z,1000.11
2017-12-13T11:19:07.329Z,1000.04
2017-12-13T11:20:16.857Z,1000.05
2017-12-13T11:21:26.686Z,1000.12
2017-12-13T11:22:36.752Z,1000.07
2017-12-13T11:23:46.815Z,1000.06
2017-12-13T11:24:56.881Z,1000.03
2017-12-13T11:26:06.685Z,999.98
2017-12-13T11:27:16.741Z,999.94
2017-12-13T11:28:26.854Z,999.89
2017-12-13T11:29:36.650Z,999.85
2017-12-13T11:30:46.656Z,999.83
2017-12-13T11:31:56.731Z,999.83
2017-12-13T11:33:06.524Z,999.83
2017-12-13T11:34:16.569Z,999.8
2017-12-13T11:35:26.614Z,999.78
2017-12-13T11:36:36.147Z,999.77
2017-12-13T11:37:46.209Z,999.7
2017-12-13T11:38:56.365Z,999.66
2017-12-13T11:40:06.296Z,999.72
2017-12-13T11:41:16.352Z,999.73
2017-12-13T11:42:26.416Z,999.68
2017-12-13T11:43:35.964Z,999.68
2017-12-13T11:44:46.032Z,999.65
2017-12-13T11:45:56.201Z,999.59
2017-12-13T11:47:06.628Z,999.62
2017-12-13T11:48:16.700Z,999.6
2017-12-13T11:49:26.760Z,999.61
2017-12-13T11:50:36.548Z,999.59
2017-12-13T11:51:46.713Z,999.58
2017-12-13T11:52:56.772Z,999.61
2017-12-13T11:54:09.240Z,999.6
2017-12-13T11:55:18.771Z,999.54
2017-12-13T11:56:28.317Z,999.52
2017-12-13T11:57:38.423Z,999.49
2017-12-13T11:58:48.229Z,999.47
2017-12-13T11:59:58.016Z,999.43
2017-12-13T12:01:08.152Z,999.43
2017-12-13T12:02:19.315Z,999.42
2017-12-13T12:03:29.841Z,999.37
2017-12-13T12:04:39.628Z,999.37
2017-12-13T12:05:49.175Z,999.32
2017-12-13T12:06:58.984Z,999.35
2017-12-13T12:08:09.072Z,999.33
2017-12-13T12:09:19.153Z,999.27
2017-12-13T12:10:28.744Z,999.27
2017-12-13T12:11:38.581Z,999.23
2017-12-13T12:12:48.751Z,999.23
2017-12-13T12:13:58.800Z,999.23
2017-12-13T12:15:08.883Z,999.13
2017-12-13T12:16:18.697Z,999.17
2017-12-13T12:17:29.064Z,999.1
2017-12-13T12:18:39.115Z,999.09
2017-12-13T12:19:48.665Z,999.05
2017-12-13T12:20:58.734Z,999.03
2017-12-13T12:22:09.015Z,999.03
2017-12-13T12:23:19.092Z,999.05
2017-12-13T12:24:28.624Z,998.92
2017-12-13T12:25:38.478Z,998.93
2017-12-13T12:26:48.537Z,998.92
2017-12-13T12:27:58.595Z,998.86
2017-12-13T12:29:07.876Z,998.83
2017-12-13T12:30:17.939Z,998.86
2017-12-13T12:31:27.825Z,998.81
2017-12-13T12:32:37.922Z,998.78
2017-12-13T12:33:48.003Z,998.78
2017-12-13T12:34:57.796Z,998.76
2017-12-13T12:36:07.880Z,998.71
2017-12-13T12:37:17.965Z,998.69
2017-12-13T12:38:28.025Z,998.69
2017-12-13T12:39:38.076Z,998.64
2017-12-13T12:40:47.872Z,998.62
2017-12-13T12:41:57.933Z,998.61
2017-12-13T12:43:07.992Z,998.57
2017-12-13T12:44:18.075Z,998.56
2017-12-13T12:45:27.619Z,998.49
2017-12-13T12:46:37.433Z,998.5
2017-12-13T12:47:47.493Z,998.48
2017-12-13T12:48:57.055Z,998.45
2017-12-13T12:50:06.865Z,998.42
2017-12-13T12:51:16.938Z,998.44
2017-12-13T12:52:27.080Z,998.41
2017-12-13T12:53:36.946Z,998.39
2017-12-13T12:54:46.528Z,998.38
2017-12-13T12:55:56.099Z,998.42
2017-12-13T12:57:07.086Z,998.37
2017-12-13T12:58:16.613Z,998.34
2017-12-13T12:59:26.462Z,998.35
2017-12-13T13:00:36.533Z,998.31
2017-12-13T13:01:46.339Z,998.26
2017-12-13T13:02:56.459Z,998.24
2017-12-13T13:04:07.155Z,998.23
2017-12-13T13:05:16.980Z,998.19
2017-12-13T13:06:26.801Z,998.16
2017-12-13T13:07:36.870Z,998.18
2017-12-13T13:08:46.979Z,998.11
2017-12-13T13:09:56.898Z,998.14
2017-12-13T13:11:06.761Z,998.09
2017-12-13T13:12:17.098Z,998.04
2017-12-13T13:13:27.194Z,998.03
2017-12-13T13:14:37.018Z,998.04
2017-12-13T13:15:46.837Z,998.07
2017-12-13T13:16:56.905Z,998.09
2017-12-13T13:18:06.979Z,998.04
2017-12-13T13:19:17.860Z,998.09
2017-12-13T13:20:28.777Z,998.08
2017-12-13T13:21:38.570Z,998.05
2017-12-13T13:22:48.652Z,997.98
2017-12-13T13:23:58.446Z,997.99
2017-12-13T13:25:08.235Z,998.03
2017-12-13T13:26:18.049Z,997.97
2017-12-13T13:27:28.142Z,997.94
2017-12-13T13:28:37.994Z,997.93
2017-12-13T13:29:47.529Z,997.87
2017-12-13T13:30:57.583Z,997.79
2017-12-13T13:32:07.660Z,997.79
2017-12-13T13:33:17.735Z,997.79
2017-12-13T13:34:27.864Z,997.78
2017-12-13T13:35:37.391Z,997.72
2017-12-13T13:36:47.185Z,997.74
2017-12-13T13:37:56.990Z,997.72
2017-12-13T13:39:06.791Z,997.65
2017-12-13T13:40:16.576Z,997.63
2017-12-13T13:41:26.180Z,997.58
2017-12-13T13:42:35.971Z,997.58
2017-12-13T13:43:46.026Z,997.56
2017-12-13T13:44:56.088Z,997.5
2017-12-13T13:46:06.160Z,997.5
2017-12-13T13:47:15.952Z,997.45
2017-12-13T13:48:26.020Z,997.42
2017-12-13T13:49:35.841Z,997.41
2017-12-13T13:50:46.630Z,997.43
2017-12-13T13:51:56.488Z,997.44
2017-12-13T13:53:06.555Z,997.45
2017-12-13T13:54:16.347Z,997.39
2017-12-13T13:55:26.411Z,997.4
2017-12-13T13:56:37.250Z,997.4
2017-12-13T13:57:46.884Z,997.36
2017-12-13T13:58:56.946Z,997.31
2017-12-13T14:00:07.006Z,997.35
2017-12-13T14:01:16.867Z,997.33
2017-12-13T14:02:26.944Z,997.3
2017-12-13T14:03:36.555Z,997.27
2017-12-13T14:04:46.789Z,997.22
2017-12-13T14:05:56.598Z,997.24
2017-12-13T14:07:06.393Z,997.21
2017-12-13T14:08:16.455Z,997.18
2017-12-13T14:09:26.566Z,997.16
2017-12-13T14:10:36.688Z,997.18
2017-12-13T14:11:46.493Z,997.11
2017-12-13T14:12:56.060Z,997.12
2017-12-13T14:14:06.391Z,997.07
2017-12-13T14:15:17.895Z,997.04
2017-12-13T14:16:27.949Z,997
2017-12-13T14:17:37.749Z,997.04
2017-12-13T14:18:47.021Z,997.02
2017-12-13T14:19:56.842Z,997.05
2017-12-13T14:21:06.895Z,997.1
2017-12-13T14:22:16.962Z,997.08
2017-12-13T14:23:26.766Z,997.02
2017-12-13T14:24:36.939Z,997.03
2017-12-13T14:25:46.486Z,997.02
2017-12-13T14:26:56.312Z,996.95
2017-12-13T14:28:05.869Z,996.91
2017-12-13T14:29:15.936Z,996.89
2017-12-13T14:30:42.138Z,996.84
2017-12-13T14:31:52.184Z,996.81
2017-12-13T14:33:01.739Z,996.83
2017-12-13T14:34:11.810Z,996.82
2017-12-13T14:35:21.910Z,996.82
2017-12-13T14:36:31.992Z,996.85
2017-12-13T14:37:41.796Z,996.84
2017-12-13T14:38:51.334Z,996.82
2017-12-13T14:40:01.128Z,996.84
2017-12-13T14:41:11.278Z,996.83
2017-12-13T14:42:21.955Z,996.79
2017-12-13T14:43:32.009Z,996.78
2017-12-13T14:44:41.816Z,996.77
2017-12-13T14:45:51.635Z,996.78
2017-12-13T14:47:01.686Z,996.77
2017-12-13T14:48:11.509Z,996.79
2017-12-13T14:49:21.352Z,996.74
2017-12-13T14:50:30.873Z,996.68